sensor_id;sensor_type;location;lat;lon;timestamp;temperature;humidity
10089;DHT22;51898;49.864;8.550;2024-01-07T00:01:08;5.00;92.10
10089;DHT22;51898;49.864;8.550;2024-01-07T08:38:59;2.90;85.00
10089;DHT22;51898;49.864;8.550;2024-01-07T08:42:04;2.90;84.80
10089;DHT22;51898;49.864;8.550;2024-01-07T08:45:06;2.90;84.40
10089;DHT22;51898;49.864;8.550;2024-01-07T08:48:08;2.90;84.20
10089;DHT22;51898;49.864;8.550;2024-01-07T08:51:11;2.90;84.50
10089;DHT22;51898;49.864;8.550;2024-01-07T08:54:12;2.90;84.10
10089;DHT22;51898;49.864;8.550;2024-01-07T08:57:14;2.90;83.90
10089;DHT22;51898;49.864;8.550;2024-01-07T09:00:16;2.90;82.40
10089;DHT22;51898;49.864;8.550;2024-01-07T09:03:18;2.90;82.00
10089;DHT22;51898;49.864;8.550;2024-01-07T09:06:20;2.90;82.40
10089;DHT22;51898;49.864;8.550;2024-01-07T09:09:21;2.90;82.40
10089;DHT22;51898;49.864;8.550;2024-01-07T09:12:23;2.90;81.90
10089;DHT22;51898;49.864;8.550;2024-01-07T09:15:25;2.90;81.40
10089;DHT22;51898;49.864;8.550;2024-01-07T09:18:27;2.90;81.20
10089;DHT22;51898;49.864;8.550;2024-01-07T09:21:29;2.90;81.20
10089;DHT22;51898;49.864;8.550;2024-01-07T09:24:31;2.80;81.90
10089;DHT22;51898;49.864;8.550;2024-01-07T09:27:33;2.90;81.30
10089;DHT22;51898;49.864;8.550;2024-01-07T09:30:35;2.90;80.70
10089;DHT22;51898;49.864;8.550;2024-01-07T09:33:37;3.00;79.90
10089;DHT22;51898;49.864;8.550;2024-01-07T09:36:39;2.90;79.40
10089;DHT22;51898;49.864;8.550;2024-01-07T09:39:41;2.80;80.80
10089;DHT22;51898;49.864;8.550;2024-01-07T09:42:43;2.90;81.10
10089;DHT22;51898;49.864;8.550;2024-01-07T09:45:46;2.80;80.30
10089;DHT22;51898;49.864;8.550;2024-01-07T09:48:49;2.80;80.20
10089;DHT22;51898;49.864;8.550;2024-01-07T09:51:54;2.80;80.00
10089;DHT22;51898;49.864;8.550;2024-01-07T09:55:00;2.80;80.90
10089;DHT22;51898;49.864;8.550;2024-01-07T09:58:04;2.70;80.30
10089;DHT22;51898;49.864;8.550;2024-01-07T10:01:06;2.80;80.90
10089;DHT22;51898;49.864;8.550;2024-01-07T10:04:09;2.80;80.70
10089;DHT22;51898;49.864;8.550;2024-01-07T10:07:11;2.90;79.50
10089;DHT22;51898;49.864;8.550;2024-01-07T10:10:14;2.90;79.50
10089;DHT22;51898;49.864;8.550;2024-01-07T10:13:17;2.70;79.30
10089;DHT22;51898;49.864;8.550;2024-01-07T10:16:18;2.90;79.60
10089;DHT22;51898;49.864;8.550;2024-01-07T10:19:24;3.00;79.90
10089;DHT22;51898;49.864;8.550;2024-01-07T10:22:26;3.10;78.60
10089;DHT22;51898;49.864;8.550;2024-01-07T10:25:30;3.10;79.20
10089;DHT22;51898;49.864;8.550;2024-01-07T10:28:33;3.00;78.00
10089;DHT22;51898;49.864;8.550;2024-01-07T10:31:37;3.00;78.50
10089;DHT22;51898;49.864;8.550;2024-01-07T10:34:40;3.00;77.70
10089;DHT22;51898;49.864;8.550;2024-01-07T10:37:43;2.90;78.40
10089;DHT22;51898;49.864;8.550;2024-01-07T10:40:47;3.00;78.30
10089;DHT22;51898;49.864;8.550;2024-01-07T10:43:49;3.00;78.50
10089;DHT22;51898;49.864;8.550;2024-01-07T10:46:54;3.00;77.90
10089;DHT22;51898;49.864;8.550;2024-01-07T10:49:59;3.10;78.00
10089;DHT22;51898;49.864;8.550;2024-01-07T10:53:04;3.20;78.10
10089;DHT22;51898;49.864;8.550;2024-01-07T10:56:11;3.30;77.10
10089;DHT22;51898;49.864;8.550;2024-01-07T10:59:13;3.20;77.80
10089;DHT22;51898;49.864;8.550;2024-01-07T11:02:15;3.30;77.40
10089;DHT22;51898;49.864;8.550;2024-01-07T11:05:25;3.20;78.00
10089;DHT22;51898;49.864;8.550;2024-01-07T11:08:48;3.20;78.50
10089;DHT22;51898;49.864;8.550;2024-01-07T11:11:53;3.20;78.80
10089;DHT22;51898;49.864;8.550;2024-01-07T11:14:55;3.30;79.00
10089;DHT22;51898;49.864;8.550;2024-01-07T11:18:00;3.30;79.00
10089;DHT22;51898;49.864;8.550;2024-01-07T11:21:02;3.30;78.10
10089;DHT22;51898;49.864;8.550;2024-01-07T11:24:05;3.30;77.80
10089;DHT22;51898;49.864;8.550;2024-01-07T11:27:09;3.30;77.90
10089;DHT22;51898;49.864;8.550;2024-01-07T11:30:20;3.30;77.80
10089;DHT22;51898;49.864;8.550;2024-01-07T11:33:22;3.30;77.50
10089;DHT22;51898;49.864;8.550;2024-01-07T11:36:35;3.30;77.30
10089;DHT22;51898;49.864;8.550;2024-01-07T11:39:37;3.20;77.30
10089;DHT22;51898;49.864;8.550;2024-01-07T11:42:39;3.20;76.80
10089;DHT22;51898;49.864;8.550;2024-01-07T11:45:41;3.10;77.30
10089;DHT22;51898;49.864;8.550;2024-01-07T11:48:45;3.00;77.90
10089;DHT22;51898;49.864;8.550;2024-01-07T11:51:50;3.00;78.10
10089;DHT22;51898;49.864;8.550;2024-01-07T11:54:52;3.00;78.50
10089;DHT22;51898;49.864;8.550;2024-01-07T11:57:55;2.90;76.80
10089;DHT22;51898;49.864;8.550;2024-01-07T12:00:58;2.80;77.50
10089;DHT22;51898;49.864;8.550;2024-01-07T12:03:59;2.90;76.30
10089;DHT22;51898;49.864;8.550;2024-01-07T12:07:02;2.90;75.90
10089;DHT22;51898;49.864;8.550;2024-01-07T12:10:08;2.90;75.00
10089;DHT22;51898;49.864;8.550;2024-01-07T12:13:13;2.70;74.20
10089;DHT22;51898;49.864;8.550;2024-01-07T12:16:15;2.70;74.60
10089;DHT22;51898;49.864;8.550;2024-01-07T12:19:17;2.70;74.90
10089;DHT22;51898;49.864;8.550;2024-01-07T12:22:19;2.80;74.20
10089;DHT22;51898;49.864;8.550;2024-01-07T12:25:22;2.70;74.40
10089;DHT22;51898;49.864;8.550;2024-01-07T12:28:25;2.80;74.20
10089;DHT22;51898;49.864;8.550;2024-01-07T12:31:29;2.70;74.50
10089;DHT22;51898;49.864;8.550;2024-01-07T12:34:31;2.80;74.50
10089;DHT22;51898;49.864;8.550;2024-01-07T12:37:37;2.70;74.30
10089;DHT22;51898;49.864;8.550;2024-01-07T12:40:39;2.70;75.10
10089;DHT22;51898;49.864;8.550;2024-01-07T12:43:41;2.70;75.40
10089;DHT22;51898;49.864;8.550;2024-01-07T12:46:42;2.70;76.00
10089;DHT22;51898;49.864;8.550;2024-01-07T12:49:44;2.90;76.20
10089;DHT22;51898;49.864;8.550;2024-01-07T12:52:46;2.90;75.40
10089;DHT22;51898;49.864;8.550;2024-01-07T12:55:48;2.90;75.90
10089;DHT22;51898;49.864;8.550;2024-01-07T12:58:49;2.90;75.20
10089;DHT22;51898;49.864;8.550;2024-01-07T13:01:51;3.00;75.20
10089;DHT22;51898;49.864;8.550;2024-01-07T13:04:53;2.90;74.70
10089;DHT22;51898;49.864;8.550;2024-01-07T13:07:55;2.90;75.00
10089;DHT22;51898;49.864;8.550;2024-01-07T13:10:57;2.80;75.70
10089;DHT22;51898;49.864;8.550;2024-01-07T13:14:00;2.80;75.80
10089;DHT22;51898;49.864;8.550;2024-01-07T13:17:03;2.90;75.60
10089;DHT22;51898;49.864;8.550;2024-01-07T13:20:06;2.90;75.50
10089;DHT22;51898;49.864;8.550;2024-01-07T13:23:08;2.90;74.60
10089;DHT22;51898;49.864;8.550;2024-01-07T13:26:10;2.80;73.80
10089;DHT22;51898;49.864;8.550;2024-01-07T13:29:12;2.70;73.70
10089;DHT22;51898;49.864;8.550;2024-01-07T13:32:14;2.70;74.50
10089;DHT22;51898;49.864;8.550;2024-01-07T13:35:20;2.70;74.30
10089;DHT22;51898;49.864;8.550;2024-01-07T13:38:22;2.80;75.00
10089;DHT22;51898;49.864;8.550;2024-01-07T13:41:24;2.80;74.50
10089;DHT22;51898;49.864;8.550;2024-01-07T13:44:25;2.90;72.30
10089;DHT22;51898;49.864;8.550;2024-01-07T13:47:27;2.60;71.60
10089;DHT22;51898;49.864;8.550;2024-01-07T13:50:29;2.50;72.30
10089;DHT22;51898;49.864;8.550;2024-01-07T13:53:31;2.50;72.20
10089;DHT22;51898;49.864;8.550;2024-01-07T13:56:33;2.40;72.60
10089;DHT22;51898;49.864;8.550;2024-01-07T13:59:37;2.40;71.80
10089;DHT22;51898;49.864;8.550;2024-01-07T14:02:38;2.30;71.60
10089;DHT22;51898;49.864;8.550;2024-01-07T14:05:42;2.30;71.90
10089;DHT22;51898;49.864;8.550;2024-01-07T14:12:35;2.30;71.80
10089;DHT22;51898;49.864;8.550;2024-01-07T14:15:36;2.10;72.70
10089;DHT22;51898;49.864;8.550;2024-01-07T14:18:38;1.90;72.80
10089;DHT22;51898;49.864;8.550;2024-01-07T14:21:40;2.00;73.20
10089;DHT22;51898;49.864;8.550;2024-01-07T14:24:42;1.90;72.80
10089;DHT22;51898;49.864;8.550;2024-01-07T14:27:44;1.90;73.50
10089;DHT22;51898;49.864;8.550;2024-01-07T14:30:46;1.80;74.10
10089;DHT22;51898;49.864;8.550;2024-01-07T14:33:48;1.80;74.40
10089;DHT22;51898;49.864;8.550;2024-01-07T14:36:50;1.80;74.90
10089;DHT22;51898;49.864;8.550;2024-01-07T14:39:51;1.90;75.60
10089;DHT22;51898;49.864;8.550;2024-01-07T14:42:53;1.90;74.70
10089;DHT22;51898;49.864;8.550;2024-01-07T14:45:59;1.70;75.30
10089;DHT22;51898;49.864;8.550;2024-01-07T14:49:01;1.60;75.60
10089;DHT22;51898;49.864;8.550;2024-01-07T14:52:03;1.60;75.50
10089;DHT22;51898;49.864;8.550;2024-01-07T14:55:05;1.50;76.00
10089;DHT22;51898;49.864;8.550;2024-01-07T14:58:07;1.50;76.60
10089;DHT22;51898;49.864;8.550;2024-01-07T15:01:08;1.40;76.40
10089;DHT22;51898;49.864;8.550;2024-01-07T15:04:10;1.40;76.50
10089;DHT22;51898;49.864;8.550;2024-01-07T15:07:13;1.30;76.50
10089;DHT22;51898;49.864;8.550;2024-01-07T15:10:16;1.20;76.80
10089;DHT22;51898;49.864;8.550;2024-01-07T15:13:19;1.10;76.80
10089;DHT22;51898;49.864;8.550;2024-01-07T15:16:22;1.00;76.40
10089;DHT22;51898;49.864;8.550;2024-01-07T15:19:24;1.00;76.00
10089;DHT22;51898;49.864;8.550;2024-01-07T15:22:26;0.90;75.50
10089;DHT22;51898;49.864;8.550;2024-01-07T15:25:28;0.80;76.00
10089;DHT22;51898;49.864;8.550;2024-01-07T15:28:30;0.80;76.00
10089;DHT22;51898;49.864;8.550;2024-01-07T15:31:32;0.70;75.40
10089;DHT22;51898;49.864;8.550;2024-01-07T15:34:34;0.70;75.80
10089;DHT22;51898;49.864;8.550;2024-01-07T15:37:36;0.70;75.60
10089;DHT22;51898;49.864;8.550;2024-01-07T15:40:37;0.60;75.20
10089;DHT22;51898;49.864;8.550;2024-01-07T15:43:39;0.60;75.50
10089;DHT22;51898;49.864;8.550;2024-01-07T15:46:41;0.60;75.30
10089;DHT22;51898;49.864;8.550;2024-01-07T15:49:43;0.60;75.40
10089;DHT22;51898;49.864;8.550;2024-01-07T15:52:44;0.50;76.10
10089;DHT22;51898;49.864;8.550;2024-01-07T15:55:48;0.40;75.70
10089;DHT22;51898;49.864;8.550;2024-01-07T15:58:50;0.50;76.00
10089;DHT22;51898;49.864;8.550;2024-01-07T16:01:52;0.40;75.80
10089;DHT22;51898;49.864;8.550;2024-01-07T16:04:54;0.40;75.00
10089;DHT22;51898;49.864;8.550;2024-01-07T16:07:55;0.30;75.30
10089;DHT22;51898;49.864;8.550;2024-01-07T16:10:58;0.30;74.80
10089;DHT22;51898;49.864;8.550;2024-01-07T16:14:00;0.20;73.30
10089;DHT22;51898;49.864;8.550;2024-01-07T16:17:01;0.10;71.90
10089;DHT22;51898;49.864;8.550;2024-01-07T16:20:03;0.00;72.10
10089;DHT22;51898;49.864;8.550;2024-01-07T16:23:05;0.00;71.90
10089;DHT22;51898;49.864;8.550;2024-01-07T16:26:07;0.00;71.70
10089;DHT22;51898;49.864;8.550;2024-01-07T16:29:09;0.00;71.60
10089;DHT22;51898;49.864;8.550;2024-01-07T16:32:10;-0.10;71.20
10089;DHT22;51898;49.864;8.550;2024-01-07T16:35:12;-0.10;71.60
10089;DHT22;51898;49.864;8.550;2024-01-07T16:38:15;-0.10;70.90
10089;DHT22;51898;49.864;8.550;2024-01-07T16:41:18;-0.30;70.80
10089;DHT22;51898;49.864;8.550;2024-01-07T16:44:23;-0.30;71.20
10089;DHT22;51898;49.864;8.550;2024-01-07T16:47:25;-0.40;70.70
10089;DHT22;51898;49.864;8.550;2024-01-07T16:50:27;-0.50;70.60
10089;DHT22;51898;49.864;8.550;2024-01-07T16:53:32;-0.50;70.90
10089;DHT22;51898;49.864;8.550;2024-01-07T16:56:34;-0.60;71.30
10089;DHT22;51898;49.864;8.550;2024-01-07T16:59:36;-0.60;70.80
10089;DHT22;51898;49.864;8.550;2024-01-07T17:02:37;-0.60;70.70
10089;DHT22;51898;49.864;8.550;2024-01-07T17:05:39;-0.60;70.80
10089;DHT22;51898;49.864;8.550;2024-01-07T17:08:44;-0.60;71.10
10089;DHT22;51898;49.864;8.550;2024-01-07T17:11:45;-0.70;70.60
10089;DHT22;51898;49.864;8.550;2024-01-07T17:14:47;-0.70;70.50
10089;DHT22;51898;49.864;8.550;2024-01-07T17:17:53;-0.70;70.50
10089;DHT22;51898;49.864;8.550;2024-01-07T17:20:54;-0.80;70.40
10089;DHT22;51898;49.864;8.550;2024-01-07T17:23:56;-0.70;70.70
10089;DHT22;51898;49.864;8.550;2024-01-07T17:26:58;-0.70;70.00
10089;DHT22;51898;49.864;8.550;2024-01-07T17:30:00;-0.80;69.50
10089;DHT22;51898;49.864;8.550;2024-01-07T17:33:02;-0.80;69.50
10089;DHT22;51898;49.864;8.550;2024-01-07T17:36:04;-0.80;70.10
10089;DHT22;51898;49.864;8.550;2024-01-07T17:39:06;-0.80;69.20
10089;DHT22;51898;49.864;8.550;2024-01-07T17:42:11;-0.90;69.10
10089;DHT22;51898;49.864;8.550;2024-01-07T17:45:14;-0.90;69.10
10089;DHT22;51898;49.864;8.550;2024-01-07T17:48:16;-0.90;69.50
10089;DHT22;51898;49.864;8.550;2024-01-07T17:51:20;-0.90;68.80
10089;DHT22;51898;49.864;8.550;2024-01-07T17:54:23;-0.90;68.60
10089;DHT22;51898;49.864;8.550;2024-01-07T17:57:26;-0.90;68.20
10089;DHT22;51898;49.864;8.550;2024-01-07T18:00:28;-0.90;67.10
10089;DHT22;51898;49.864;8.550;2024-01-07T18:03:32;-0.90;68.10
10089;DHT22;51898;49.864;8.550;2024-01-07T18:06:33;-0.90;67.20
10089;DHT22;51898;49.864;8.550;2024-01-07T18:09:35;-1.00;67.60
10089;DHT22;51898;49.864;8.550;2024-01-07T18:12:37;-0.90;67.30
10089;DHT22;51898;49.864;8.550;2024-01-07T18:15:39;-1.00;67.00
10089;DHT22;51898;49.864;8.550;2024-01-07T18:18:41;-0.90;67.60
10089;DHT22;51898;49.864;8.550;2024-01-07T18:21:43;-0.90;67.00
10089;DHT22;51898;49.864;8.550;2024-01-07T18:24:49;-0.90;67.20
10089;DHT22;51898;49.864;8.550;2024-01-07T18:27:51;-1.00;67.30
10089;DHT22;51898;49.864;8.550;2024-01-07T18:30:53;-0.90;67.10
10089;DHT22;51898;49.864;8.550;2024-01-07T18:33:55;-1.00;67.00
10089;DHT22;51898;49.864;8.550;2024-01-07T18:37:01;-1.00;67.00
10089;DHT22;51898;49.864;8.550;2024-01-07T18:40:03;-1.00;67.50
10089;DHT22;51898;49.864;8.550;2024-01-07T18:43:05;-1.00;66.90
10089;DHT22;51898;49.864;8.550;2024-01-07T18:46:10;-0.90;67.00
10089;DHT22;51898;49.864;8.550;2024-01-07T18:49:12;-0.90;67.00
10089;DHT22;51898;49.864;8.550;2024-01-07T18:52:14;-0.90;66.60
10089;DHT22;51898;49.864;8.550;2024-01-07T18:55:16;-1.00;67.00
10089;DHT22;51898;49.864;8.550;2024-01-07T18:58:18;-0.90;66.10
10089;DHT22;51898;49.864;8.550;2024-01-07T19:01:20;-1.00;66.30
10089;DHT22;51898;49.864;8.550;2024-01-07T19:04:22;-1.00;66.90
10089;DHT22;51898;49.864;8.550;2024-01-07T19:07:24;-1.00;67.10
10089;DHT22;51898;49.864;8.550;2024-01-07T19:10:26;-1.00;66.50
10089;DHT22;51898;49.864;8.550;2024-01-07T19:13:28;-1.00;66.50
10089;DHT22;51898;49.864;8.550;2024-01-07T19:16:30;-0.90;67.20
10089;DHT22;51898;49.864;8.550;2024-01-07T19:19:31;-0.90;67.10
10089;DHT22;51898;49.864;8.550;2024-01-07T19:22:33;-0.90;67.40
10089;DHT22;51898;49.864;8.550;2024-01-07T19:25:36;-0.90;66.90
10089;DHT22;51898;49.864;8.550;2024-01-07T19:28:38;-0.90;66.50
10089;DHT22;51898;49.864;8.550;2024-01-07T19:31:40;-0.90;66.50
10089;DHT22;51898;49.864;8.550;2024-01-07T19:34:42;-0.90;66.80
10089;DHT22;51898;49.864;8.550;2024-01-07T19:37:44;-0.90;67.10
10089;DHT22;51898;49.864;8.550;2024-01-07T19:40:45;-1.00;67.20
10089;DHT22;51898;49.864;8.550;2024-01-07T19:43:47;-0.90;67.50
10089;DHT22;51898;49.864;8.550;2024-01-07T19:46:49;-0.90;67.00
10089;DHT22;51898;49.864;8.550;2024-01-07T19:49:52;-0.90;67.50
10089;DHT22;51898;49.864;8.550;2024-01-07T19:52:55;-0.90;67.30
10089;DHT22;51898;49.864;8.550;2024-01-07T19:55:57;-1.00;67.00
10089;DHT22;51898;49.864;8.550;2024-01-07T19:59:03;-0.90;67.70
10089;DHT22;51898;49.864;8.550;2024-01-07T20:02:06;-1.00;67.90
10089;DHT22;51898;49.864;8.550;2024-01-07T20:05:08;-0.90;67.80
10089;DHT22;51898;49.864;8.550;2024-01-07T20:08:10;-0.90;67.50
10089;DHT22;51898;49.864;8.550;2024-01-07T20:11:18;-0.90;67.90
10089;DHT22;51898;49.864;8.550;2024-01-07T20:14:20;-0.90;67.20
10089;DHT22;51898;49.864;8.550;2024-01-07T20:17:22;-0.90;68.00
10089;DHT22;51898;49.864;8.550;2024-01-07T20:20:24;-0.90;68.20
10089;DHT22;51898;49.864;8.550;2024-01-07T20:23:26;-0.80;67.80
10089;DHT22;51898;49.864;8.550;2024-01-07T20:26:29;-0.80;67.60
10089;DHT22;51898;49.864;8.550;2024-01-07T20:29:31;-0.80;67.20
10089;DHT22;51898;49.864;8.550;2024-01-07T20:32:36;-0.70;67.10
10089;DHT22;51898;49.864;8.550;2024-01-07T20:35:38;-0.80;67.50
10089;DHT22;51898;49.864;8.550;2024-01-07T20:38:42;-0.80;67.40
10089;DHT22;51898;49.864;8.550;2024-01-07T20:41:44;-0.70;67.50
10089;DHT22;51898;49.864;8.550;2024-01-07T20:44:46;-0.70;67.80
10089;DHT22;51898;49.864;8.550;2024-01-07T20:47:48;-0.70;67.60
10089;DHT22;51898;49.864;8.550;2024-01-07T20:50:51;-0.70;66.70
10089;DHT22;51898;49.864;8.550;2024-01-07T20:53:53;-0.70;67.00
10089;DHT22;51898;49.864;8.550;2024-01-07T20:56:54;-0.70;67.40
10089;DHT22;51898;49.864;8.550;2024-01-07T20:59:56;-0.60;67.70
10089;DHT22;51898;49.864;8.550;2024-01-07T21:02:58;-0.60;67.70
10089;DHT22;51898;49.864;8.550;2024-01-07T21:05:59;-0.60;67.60
10089;DHT22;51898;49.864;8.550;2024-01-07T21:09:03;-0.60;67.70
10089;DHT22;51898;49.864;8.550;2024-01-07T21:12:05;-0.60;67.00
10089;DHT22;51898;49.864;8.550;2024-01-07T21:15:08;-0.60;67.50
10089;DHT22;51898;49.864;8.550;2024-01-07T21:18:10;-0.60;67.30
10089;DHT22;51898;49.864;8.550;2024-01-07T21:21:15;-0.60;67.70
10089;DHT22;51898;49.864;8.550;2024-01-07T21:24:17;-0.60;67.60
10089;DHT22;51898;49.864;8.550;2024-01-07T21:27:19;-0.50;67.70
10089;DHT22;51898;49.864;8.550;2024-01-07T21:30:21;-0.50;67.50
10089;DHT22;51898;49.864;8.550;2024-01-07T21:33:22;-0.50;67.60
10089;DHT22;51898;49.864;8.550;2024-01-07T21:36:27;-0.40;68.00
10089;DHT22;51898;49.864;8.550;2024-01-07T21:39:28;-0.40;67.30
10089;DHT22;51898;49.864;8.550;2024-01-07T21:42:30;-0.40;67.30
10089;DHT22;51898;49.864;8.550;2024-01-07T21:45:32;-0.40;67.10
10089;DHT22;51898;49.864;8.550;2024-01-07T21:48:35;-0.40;67.80
10089;DHT22;51898;49.864;8.550;2024-01-07T21:51:37;-0.40;68.10
10089;DHT22;51898;49.864;8.550;2024-01-07T21:54:38;-0.30;68.20
10089;DHT22;51898;49.864;8.550;2024-01-07T21:57:40;-0.40;67.80
10089;DHT22;51898;49.864;8.550;2024-01-07T22:00:42;-0.30;68.10
10089;DHT22;51898;49.864;8.550;2024-01-07T22:03:44;-0.30;67.80
10089;DHT22;51898;49.864;8.550;2024-01-07T22:06:46;-0.40;67.80
10089;DHT22;51898;49.864;8.550;2024-01-07T22:09:47;-0.30;67.60
10089;DHT22;51898;49.864;8.550;2024-01-07T22:12:49;-0.30;67.70
10089;DHT22;51898;49.864;8.550;2024-01-07T22:15:51;-0.30;67.70
10089;DHT22;51898;49.864;8.550;2024-01-07T22:18:52;-0.30;67.80
10089;DHT22;51898;49.864;8.550;2024-01-07T22:21:54;-0.30;68.20
10089;DHT22;51898;49.864;8.550;2024-01-07T22:24:56;-0.30;68.30
10089;DHT22;51898;49.864;8.550;2024-01-07T22:27:58;-0.30;68.10
10089;DHT22;51898;49.864;8.550;2024-01-07T22:30:59;-0.30;67.70
10089;DHT22;51898;49.864;8.550;2024-01-07T22:34:01;-0.20;68.00
10089;DHT22;51898;49.864;8.550;2024-01-07T22:37:04;-0.30;67.70
10089;DHT22;51898;49.864;8.550;2024-01-07T22:40:07;-0.30;67.60
10089;DHT22;51898;49.864;8.550;2024-01-07T22:43:09;-0.30;67.60
10089;DHT22;51898;49.864;8.550;2024-01-07T22:46:11;-0.20;67.60
10089;DHT22;51898;49.864;8.550;2024-01-07T22:49:15;-0.20;67.40
10089;DHT22;51898;49.864;8.550;2024-01-07T22:52:18;-0.20;67.80
10089;DHT22;51898;49.864;8.550;2024-01-07T22:55:23;-0.20;67.80
10089;DHT22;51898;49.864;8.550;2024-01-07T22:58:25;-0.30;67.70
10089;DHT22;51898;49.864;8.550;2024-01-07T23:01:27;-0.20;67.80
10089;DHT22;51898;49.864;8.550;2024-01-07T23:04:29;-0.20;67.80
10089;DHT22;51898;49.864;8.550;2024-01-07T23:07:31;-0.10;67.40
10089;DHT22;51898;49.864;8.550;2024-01-07T23:10:33;-0.10;67.60
10089;DHT22;51898;49.864;8.550;2024-01-07T23:13:35;-0.20;67.70
10089;DHT22;51898;49.864;8.550;2024-01-07T23:16:36;-0.10;67.70
10089;DHT22;51898;49.864;8.550;2024-01-07T23:19:39;-0.10;67.80
10089;DHT22;51898;49.864;8.550;2024-01-07T23:22:41;-0.10;67.70
10089;DHT22;51898;49.864;8.550;2024-01-07T23:25:42;-0.10;67.50
10089;DHT22;51898;49.864;8.550;2024-01-07T23:28:44;-0.20;67.80
10089;DHT22;51898;49.864;8.550;2024-01-07T23:31:46;-0.10;67.60
10089;DHT22;51898;49.864;8.550;2024-01-07T23:34:48;-0.20;67.60
10089;DHT22;51898;49.864;8.550;2024-01-07T23:37:50;-0.10;67.40
10089;DHT22;51898;49.864;8.550;2024-01-07T23:40:52;-0.10;67.30
10089;DHT22;51898;49.864;8.550;2024-01-07T23:43:54;-0.10;66.90
10089;DHT22;51898;49.864;8.550;2024-01-07T23:46:55;-0.20;66.70
10089;DHT22;51898;49.864;8.550;2024-01-07T23:49:59;-0.20;66.90
10089;DHT22;51898;49.864;8.550;2024-01-07T23:53:03;-0.20;66.90
10089;DHT22;51898;49.864;8.550;2024-01-07T23:56:05;-0.20;65.90
10089;DHT22;51898;49.864;8.550;2024-01-07T23:59:07;-0.20;66.50
